Terminal Aerodrome Forecast
Issued by NWS Jackson, MS

Home | Current Version | Previous Version | Text Only | Print | Product List | Glossary On
Versions: 1 2 3 4 5 6 7 8 9 10 11 12 13 14 15 16
000
FTUS44 KJAN 211121
TAFGWO
TAF
KGWO 211121Z 2112/2212 17012KT P6SM BKN015
     FM211600 17011KT 4SM RA BR BKN010 OVC025
     FM211900 04012KT P6SM OVC015
     FM220100 28014G22KT 2SM +TSRA BKN007 OVC010CB
     FM220400 07010KT 4SM RA BR VCTS OVC007CB=

USA.gov is the U.S. government's official web portal to all federal, state and local government web resources and services.